createdAt,value
2023-03-05T00:02:09.353Z,5.20
2023-03-05T00:04:38.520Z,5.18
2023-03-05T00:07:09.416Z,5.50
2023-03-05T00:09:38.611Z,5.40
2023-03-05T00:12:09.795Z,5.38
2023-03-05T00:14:38.959Z,5.38
2023-03-05T00:17:08.112Z,5.70
2023-03-05T00:19:37.352Z,5.20
2023-03-05T00:22:06.681Z,4.95
2023-03-05T00:24:35.886Z,5.45
2023-03-05T00:27:05.396Z,5.50
2023-03-05T00:29:36.024Z,5.57
2023-03-05T00:32:05.244Z,5.75
2023-03-05T00:34:34.389Z,5.32
2023-03-05T00:37:03.790Z,5.70
2023-03-05T00:39:32.951Z,5.63
2023-03-05T00:42:02.123Z,5.30
2023-03-05T00:44:31.309Z,5.50
2023-03-05T00:47:01.950Z,5.85
2023-03-05T00:49:31.196Z,5.30
2023-03-05T00:52:00.413Z,5.47
2023-03-05T00:54:29.607Z,4.82
2023-03-05T00:56:58.758Z,5.95
2023-03-05T00:59:28.026Z,5.55
2023-03-05T01:01:57.211Z,5.30
2023-03-05T01:04:28.067Z,5.95
2023-03-05T01:06:57.216Z,5.70
2023-03-05T01:09:26.645Z,5.60
2023-03-05T01:11:56.259Z,6.13
2023-03-05T01:14:27.926Z,5.53
2023-03-05T01:16:57.253Z,5.50
2023-03-05T01:19:27.869Z,6.20
2023-03-05T01:21:57.402Z,5.18
2023-03-05T01:24:26.608Z,5.45
2023-03-05T01:26:56.012Z,5.53
2023-03-05T01:29:25.200Z,5.38
2023-03-05T01:31:54.497Z,5.80
2023-03-05T01:34:23.913Z,6.05
2023-03-05T01:36:54.610Z,5.53
2023-03-05T01:39:23.811Z,5.28
2023-03-05T01:41:53.111Z,5.55
2023-03-05T01:44:27.357Z,5.72
2023-03-05T01:46:56.761Z,5.72
2023-03-05T01:49:28.163Z,5.68
2023-03-05T01:52:04.422Z,5.53
2023-03-05T01:54:36.732Z,5.80
2023-03-05T01:57:10.999Z,5.60
2023-03-05T01:59:42.183Z,5.43
2023-03-05T02:02:11.469Z,5.40
2023-03-05T02:04:47.381Z,5.55
2023-03-05T02:07:18.563Z,5.75
2023-03-05T02:09:47.782Z,5.82
2023-03-05T02:12:17.745Z,5.95
2023-03-05T02:14:49.207Z,5.60
2023-03-05T02:17:18.818Z,5.78
2023-03-05T02:19:49.919Z,5.63
2023-03-05T02:22:22.739Z,5.55
2023-03-05T02:24:52.310Z,5.78
2023-03-05T02:27:27.380Z,5.88
2023-03-05T02:29:56.989Z,5.90
2023-03-05T02:32:26.193Z,5.50
2023-03-05T02:34:55.373Z,6.28
2023-03-05T02:37:26.237Z,6.07
2023-03-05T02:39:55.421Z,5.75
2023-03-05T02:42:25.117Z,5.53
2023-03-05T02:44:54.257Z,5.80
2023-03-05T02:47:23.440Z,5.82
2023-03-05T02:49:53.062Z,5.28
2023-03-05T02:52:23.441Z,5.90
2023-03-05T02:54:55.274Z,6.00
2023-03-05T02:57:26.515Z,6.13
2023-03-05T02:59:57.097Z,5.82
2023-03-05T03:02:26.326Z,5.60
2023-03-05T03:04:55.510Z,5.95
2023-03-05T03:07:24.834Z,5.95
2023-03-05T03:09:55.449Z,5.90
2023-03-05T03:12:24.602Z,5.93
2023-03-05T03:14:53.794Z,5.65
2023-03-05T03:17:23.066Z,6.88
2023-03-05T03:19:52.260Z,6.55
2023-03-05T03:22:21.446Z,6.40
2023-03-05T03:24:50.675Z,6.53
2023-03-05T03:27:21.248Z,6.38
2023-03-05T03:29:50.440Z,6.15
2023-03-05T03:32:19.843Z,6.82
2023-03-05T03:34:49.244Z,6.28
2023-03-05T03:37:18.515Z,6.38
2023-03-05T03:39:47.734Z,5.93
2023-03-05T03:42:21.226Z,6.45
2023-03-05T03:44:51.049Z,6.68
2023-03-05T03:47:20.551Z,6.43
2023-03-05T03:49:49.858Z,7.50
2023-03-05T03:52:19.171Z,6.80
2023-03-05T03:54:48.308Z,6.80
2023-03-05T03:57:17.512Z,6.95
2023-03-05T03:59:48.097Z,6.88
2023-03-05T04:02:17.415Z,7.07
2023-03-05T04:04:46.680Z,7.07
2023-03-05T04:07:15.933Z,7.13
2023-03-05T04:09:45.276Z,7.43
2023-03-05T04:12:18.479Z,7.63
2023-03-05T04:14:50.038Z,6.97
2023-03-05T04:17:19.497Z,7.68
2023-03-05T04:19:48.622Z,7.13
2023-03-05T04:22:19.092Z,7.28
2023-03-05T04:24:48.368Z,7.63
2023-03-05T04:27:17.571Z,7.10
2023-03-05T04:29:48.442Z,6.80
2023-03-05T04:32:23.375Z,6.40
2023-03-05T04:34:52.842Z,7.15
2023-03-05T04:37:22.024Z,7.25
2023-03-05T04:39:51.170Z,7.72
2023-03-05T04:42:21.253Z,7.68
2023-03-05T04:44:52.749Z,7.93
2023-03-05T04:47:22.326Z,7.55
2023-03-05T04:49:51.607Z,7.68
2023-03-05T04:52:20.819Z,7.53
2023-03-05T04:54:49.929Z,8.45
2023-03-05T04:57:19.698Z,7.43
2023-03-05T04:59:48.845Z,7.80
2023-03-05T05:02:19.441Z,7.10
2023-03-05T05:04:48.820Z,7.63
2023-03-05T05:07:18.147Z,8.57
2023-03-05T05:09:47.392Z,7.45
2023-03-05T05:12:16.554Z,8.07
2023-03-05T05:14:45.759Z,8.40
2023-03-05T05:17:14.925Z,8.77
2023-03-05T05:19:45.508Z,8.45
2023-03-05T05:22:14.703Z,7.65
2023-03-05T05:24:43.937Z,7.97
2023-03-05T05:27:13.212Z,8.10
2023-03-05T05:29:42.409Z,8.20
2023-03-05T05:32:11.821Z,7.90
2023-03-05T05:34:40.965Z,8.15
2023-03-05T05:37:11.670Z,8.38
2023-03-05T05:39:40.876Z,8.45
2023-03-05T05:42:10.298Z,8.88
2023-03-05T05:44:39.417Z,8.48
2023-03-05T05:47:08.891Z,8.50
2023-03-05T05:49:38.079Z,8.10
2023-03-05T05:52:07.355Z,7.85
2023-03-05T05:54:38.022Z,8.18
2023-03-05T05:57:07.471Z,8.20
2023-03-05T05:59:37.631Z,8.45
2023-03-05T06:02:08.029Z,9.18
2023-03-05T06:04:37.667Z,8.60
2023-03-05T06:07:07.015Z,8.15
2023-03-05T06:09:38.476Z,8.57
2023-03-05T06:12:09.017Z,8.77
2023-03-05T06:14:38.276Z,8.32
2023-03-05T06:17:07.553Z,9.10
2023-03-05T06:19:36.743Z,8.98
2023-03-05T06:22:06.977Z,8.50
2023-03-05T06:24:38.490Z,8.38
2023-03-05T06:27:07.988Z,8.50
2023-03-05T06:29:37.403Z,8.48
2023-03-05T06:32:07.254Z,8.38
2023-03-05T06:34:36.580Z,8.95
2023-03-05T06:37:05.961Z,8.88
2023-03-05T06:39:35.314Z,8.25
2023-03-05T06:42:06.306Z,8.85
2023-03-05T06:44:35.491Z,8.07
2023-03-05T06:47:06.750Z,8.43
2023-03-05T06:49:36.035Z,7.88
2023-03-05T06:52:05.781Z,8.00
2023-03-05T06:54:35.110Z,8.15
2023-03-05T06:57:05.898Z,7.90
2023-03-05T06:59:35.037Z,8.55
2023-03-05T07:02:04.263Z,8.43
2023-03-05T07:04:33.497Z,8.10
2023-03-05T07:07:02.746Z,8.52
2023-03-05T07:09:32.045Z,7.85
2023-03-05T07:12:01.182Z,8.80
2023-03-05T07:14:31.727Z,8.48
2023-03-05T07:17:01.037Z,7.72
2023-03-05T07:19:30.202Z,8.15
2023-03-05T07:21:59.460Z,8.43
2023-03-05T07:24:30.139Z,7.72
2023-03-05T07:26:59.476Z,7.57
2023-03-05T07:29:29.912Z,7.07
2023-03-05T07:32:00.589Z,6.03
2023-03-05T07:34:29.898Z,7.15
2023-03-05T07:36:59.428Z,5.82
2023-03-05T07:39:28.871Z,6.55
2023-03-05T07:41:58.173Z,6.70
2023-03-05T07:44:32.899Z,6.65
2023-03-05T07:47:03.676Z,6.57
2023-03-05T07:49:33.061Z,6.68
2023-03-05T07:52:02.597Z,6.95
2023-03-05T07:54:32.510Z,7.00
2023-03-05T07:57:02.718Z,6.60
2023-03-05T07:59:32.861Z,6.30
2023-03-05T08:02:03.853Z,5.90
2023-03-05T08:04:33.563Z,6.80
2023-03-05T08:07:03.791Z,6.63
2023-03-05T08:09:33.065Z,7.25
2023-03-05T08:12:02.257Z,6.43
2023-03-05T08:14:52.779Z,5.70
2023-03-05T08:17:23.989Z,6.60
2023-03-05T08:19:58.501Z,6.57
2023-03-05T08:22:29.120Z,7.15
2023-03-05T08:24:59.679Z,6.60
2023-03-05T08:27:29.243Z,7.10
2023-03-05T08:29:58.493Z,6.40
2023-03-05T08:32:30.236Z,6.35
2023-03-05T08:35:00.193Z,7.25
2023-03-05T08:37:29.837Z,6.28
2023-03-05T08:39:59.288Z,6.35
2023-03-05T08:42:28.578Z,5.53
2023-03-05T08:44:57.891Z,5.85
2023-03-05T08:47:28.791Z,6.20
2023-03-05T08:49:58.879Z,6.63
2023-03-05T08:52:28.304Z,5.97
2023-03-05T08:54:57.688Z,6.15
2023-03-05T08:57:26.938Z,6.57
2023-03-05T08:59:56.750Z,5.60
2023-03-05T09:02:26.255Z,5.85
2023-03-05T09:04:56.991Z,42.45
2023-03-05T09:07:26.478Z,26.13
2023-03-05T09:09:55.666Z,26.33
2023-03-05T09:12:25.004Z,18.33
2023-03-05T09:14:56.197Z,16.67
2023-03-05T09:17:25.910Z,14.90
2023-03-05T09:19:57.857Z,14.15
2023-03-05T09:22:27.102Z,12.52
2023-03-05T09:24:56.317Z,11.52
2023-03-05T09:27:25.994Z,10.55
2023-03-05T09:29:55.826Z,10.98
2023-03-05T09:32:25.018Z,11.90
2023-03-05T09:34:54.245Z,12.10
2023-03-05T09:37:25.020Z,13.10
2023-03-05T09:39:54.197Z,11.48
2023-03-05T09:42:34.362Z,10.68
2023-03-05T09:45:18.587Z,10.25
2023-03-05T09:47:59.356Z,9.15
2023-03-05T09:50:37.677Z,10.20
2023-03-05T09:53:17.985Z,10.35
2023-03-05T09:55:52.072Z,9.40
2023-03-05T09:58:36.707Z,10.13
2023-03-05T10:01:10.060Z,8.80
2023-03-05T10:03:52.488Z,8.25
2023-03-05T10:06:26.542Z,9.10
2023-03-05T10:09:00.119Z,8.60
2023-03-05T10:11:51.504Z,9.30
2023-03-05T10:14:29.671Z,8.70
2023-03-05T10:17:38.283Z,8.80
2023-03-05T10:20:36.963Z,8.68
2023-03-05T10:23:21.520Z,8.88
2023-03-05T10:26:22.665Z,7.60
2023-03-05T10:29:03.490Z,8.10
2023-03-05T10:31:39.711Z,7.63
2023-03-05T10:34:39.636Z,7.30
2023-03-05T10:37:38.484Z,7.45
2023-03-05T10:40:20.105Z,7.70
2023-03-05T10:42:57.874Z,6.43
2023-03-05T10:45:32.302Z,7.35
2023-03-05T10:48:07.601Z,7.00
2023-03-05T10:50:41.741Z,7.13
2023-03-05T10:53:21.554Z,7.20
2023-03-05T10:55:56.270Z,6.85
2023-03-05T10:58:27.345Z,6.95
2023-03-05T11:01:05.917Z,8.15
2023-03-05T11:03:51.074Z,7.30
2023-03-05T11:06:37.425Z,7.57
2023-03-05T11:09:24.391Z,7.55
2023-03-05T11:12:12.847Z,8.38
2023-03-05T11:14:45.689Z,10.02
2023-03-05T11:17:33.043Z,10.63
2023-03-05T11:20:34.034Z,9.85
2023-03-05T11:23:10.873Z,8.00
2023-03-05T11:25:54.319Z,8.73
2023-03-05T11:28:33.012Z,8.43
2023-03-05T11:31:09.032Z,7.82
2023-03-05T11:33:39.063Z,7.85
2023-03-05T11:36:25.218Z,7.60
2023-03-05T11:38:56.872Z,8.00
2023-03-05T11:41:34.009Z,7.65
2023-03-05T11:44:05.926Z,6.72
2023-03-05T11:46:42.465Z,6.97
2023-03-05T11:49:17.283Z,7.25
2023-03-05T11:51:54.383Z,7.32
2023-03-05T11:54:31.799Z,8.18
2023-03-05T11:57:04.051Z,7.00
2023-03-05T11:59:37.165Z,7.10
2023-03-05T12:02:19.710Z,6.65
2023-03-05T12:04:50.127Z,6.70
2023-03-05T12:07:23.686Z,7.03
2023-03-05T12:09:54.505Z,6.88
2023-03-05T12:12:38.580Z,7.03
2023-03-05T12:15:35.128Z,7.68
2023-03-05T12:18:27.617Z,7.55
2023-03-05T12:21:05.775Z,6.82
2023-03-05T12:23:50.013Z,7.45
2023-03-05T12:26:19.811Z,7.95
2023-03-05T12:29:01.479Z,8.23
2023-03-05T12:31:39.535Z,7.55
2023-03-05T12:34:48.828Z,7.60
2023-03-05T12:37:51.446Z,8.13
2023-03-05T12:40:25.586Z,8.05
2023-03-05T12:42:57.135Z,7.70
2023-03-05T12:45:40.891Z,7.97
2023-03-05T12:48:45.585Z,7.80
2023-03-05T12:51:41.191Z,7.63
2023-03-05T12:54:31.089Z,7.68
2023-03-05T12:57:02.737Z,7.90
2023-03-05T12:59:43.577Z,7.75
2023-03-05T13:02:23.247Z,7.50
2023-03-05T13:04:54.688Z,8.07
2023-03-05T13:07:25.528Z,8.13
2023-03-05T13:09:55.937Z,8.70
2023-03-05T13:12:27.466Z,8.00
2023-03-05T13:15:01.341Z,7.53
2023-03-05T13:17:33.673Z,7.95
2023-03-05T13:20:07.637Z,7.43
2023-03-05T13:22:39.135Z,7.78
2023-03-05T13:25:17.198Z,7.70
2023-03-05T13:27:46.456Z,7.80
2023-03-05T13:30:23.372Z,8.00
2023-03-05T13:32:54.436Z,7.13
2023-03-05T13:35:24.311Z,7.07
2023-03-05T13:37:55.105Z,7.53
2023-03-05T13:40:26.613Z,7.70
2023-03-05T13:42:56.860Z,8.05
2023-03-05T13:45:28.927Z,7.60
2023-03-05T13:48:02.322Z,7.65
2023-03-05T13:50:33.795Z,8.10
2023-03-05T13:53:19.437Z,7.30
2023-03-05T13:55:49.209Z,7.85
2023-03-05T13:58:48.711Z,8.02
2023-03-05T14:01:27.866Z,8.20
2023-03-05T14:03:58.960Z,7.82
2023-03-05T14:06:31.143Z,7.10
2023-03-05T14:09:07.332Z,7.45
2023-03-05T14:11:37.396Z,7.40
2023-03-05T14:14:17.921Z,7.43
2023-03-05T14:16:47.599Z,8.32
2023-03-05T14:19:34.967Z,7.68
2023-03-05T14:22:05.602Z,7.32
2023-03-05T14:24:36.259Z,7.53
2023-03-05T14:27:13.559Z,7.70
2023-03-05T14:29:46.869Z,7.72
2023-03-05T14:32:24.659Z,7.57
2023-03-05T14:34:58.029Z,7.20
2023-03-05T14:37:30.919Z,6.93
2023-03-05T14:40:05.601Z,7.47
2023-03-05T14:42:39.183Z,7.10
2023-03-05T14:45:14.231Z,6.80
2023-03-05T14:47:43.766Z,6.80
2023-03-05T14:50:16.590Z,7.30
2023-03-05T14:52:46.527Z,7.22
2023-03-05T14:55:19.398Z,7.60
2023-03-05T14:57:51.781Z,6.95
2023-03-05T15:00:23.116Z,7.40
2023-03-05T15:02:52.537Z,7.50
2023-03-05T15:05:22.242Z,7.15
2023-03-05T15:07:52.710Z,7.70
2023-03-05T15:10:26.847Z,6.85
2023-03-05T15:12:56.151Z,6.75
2023-03-05T15:15:25.375Z,6.40
2023-03-05T15:17:55.251Z,7.60
2023-03-05T15:20:27.364Z,7.07
2023-03-05T15:22:57.033Z,7.40
2023-03-05T15:25:28.889Z,8.27
2023-03-05T15:27:59.701Z,8.35
2023-03-05T15:30:33.436Z,8.02
2023-03-05T15:33:05.440Z,6.45
2023-03-05T15:35:35.323Z,6.65
2023-03-05T15:38:05.113Z,5.82
2023-03-05T15:40:36.973Z,6.05
2023-03-05T15:43:07.212Z,5.90
2023-03-05T15:45:36.852Z,6.78
2023-03-05T15:48:06.968Z,5.53
2023-03-05T15:50:36.311Z,4.90
2023-03-05T15:53:05.983Z,5.22
2023-03-05T15:55:40.297Z,5.38
2023-03-05T15:58:10.358Z,5.05
2023-03-05T16:00:43.205Z,5.40
2023-03-05T16:03:12.973Z,5.20
2023-03-05T16:05:42.594Z,5.10
2023-03-05T16:08:12.098Z,5.80
2023-03-05T16:10:43.047Z,5.90
2023-03-05T16:13:14.966Z,5.53
2023-03-05T16:15:44.912Z,5.45
2023-03-05T16:18:16.869Z,4.95
2023-03-05T16:20:46.568Z,6.30
2023-03-05T16:23:16.058Z,7.25
2023-03-05T16:25:46.963Z,7.45
2023-03-05T16:28:16.661Z,7.43
2023-03-05T16:30:46.506Z,5.68
2023-03-05T16:33:16.041Z,6.03
2023-03-05T16:35:45.836Z,7.68
2023-03-05T16:38:16.606Z,7.75
2023-03-05T16:41:08.184Z,7.15
2023-03-05T16:43:37.106Z,7.25
2023-03-05T16:46:06.802Z,7.00
2023-03-05T16:48:36.148Z,7.45
2023-03-05T16:51:06.522Z,7.22
2023-03-05T16:53:35.819Z,7.05
2023-03-05T16:56:08.125Z,6.57
2023-03-05T16:58:39.014Z,6.45
2023-03-05T17:01:11.323Z,6.00
2023-03-05T17:03:41.756Z,6.05
2023-03-05T17:06:13.264Z,5.95
2023-03-05T17:08:43.445Z,6.00
2023-03-05T17:11:15.278Z,9.18
2023-03-05T17:13:47.644Z,8.88
2023-03-05T17:16:19.942Z,7.57
2023-03-05T17:18:49.751Z,6.82
2023-03-05T17:21:19.454Z,6.82
2023-03-05T17:23:48.821Z,6.45
2023-03-05T17:26:21.701Z,5.28
2023-03-05T17:28:53.573Z,6.22
2023-03-05T17:31:24.369Z,5.63
2023-03-05T17:33:55.522Z,5.72
2023-03-05T17:36:26.858Z,5.57
2023-03-05T17:38:56.636Z,5.70
2023-03-05T17:41:27.390Z,5.25
2023-03-05T17:43:56.770Z,6.28
2023-03-05T17:46:26.251Z,6.88
2023-03-05T17:48:55.428Z,6.47
2023-03-05T17:51:25.564Z,6.07
2023-03-05T17:53:54.789Z,6.78
2023-03-05T17:56:25.235Z,6.53
2023-03-05T17:58:57.976Z,6.03
2023-03-05T18:01:34.865Z,5.63
2023-03-05T18:04:04.366Z,5.40
2023-03-05T18:06:33.969Z,5.22
2023-03-05T18:09:03.322Z,6.43
2023-03-05T18:11:34.202Z,5.30
2023-03-05T18:14:05.746Z,5.18
2023-03-05T18:16:37.087Z,5.35
2023-03-05T18:19:06.650Z,5.30
2023-03-05T18:21:37.206Z,4.72
2023-03-05T18:24:07.707Z,5.65
2023-03-05T18:26:37.053Z,5.10
2023-03-05T18:29:08.137Z,5.10
2023-03-05T18:31:38.224Z,4.70
2023-03-05T18:34:07.613Z,5.47
2023-03-05T18:36:36.821Z,5.68
2023-03-05T18:39:06.177Z,5.20
2023-03-05T18:41:35.379Z,5.13
2023-03-05T18:44:07.390Z,5.65
2023-03-05T18:46:38.297Z,5.65
2023-03-05T18:49:08.714Z,5.90
2023-03-05T18:51:38.986Z,5.68
2023-03-05T18:54:08.310Z,5.82
2023-03-05T18:56:49.919Z,5.88
2023-03-05T18:59:19.240Z,6.50
2023-03-05T19:01:49.947Z,5.65
2023-03-05T19:04:43.323Z,6.10
2023-03-05T19:07:20.364Z,5.78
2023-03-05T19:09:54.928Z,6.10
2023-03-05T19:12:26.663Z,5.68
2023-03-05T19:14:55.894Z,5.28
2023-03-05T19:17:27.422Z,5.70
2023-03-05T19:19:59.197Z,5.90
2023-03-05T19:22:29.665Z,5.45
2023-03-05T19:25:02.002Z,5.45
2023-03-05T19:27:31.565Z,4.90
2023-03-05T19:30:01.520Z,5.35
2023-03-05T19:32:32.991Z,5.13
2023-03-05T19:35:02.755Z,4.88
2023-03-05T19:37:33.504Z,5.30
2023-03-05T19:40:03.418Z,4.95
2023-03-05T19:42:33.478Z,5.20
2023-03-05T19:45:03.175Z,5.07
2023-03-05T19:47:34.600Z,5.22
2023-03-05T19:50:05.631Z,5.10
2023-03-05T19:52:35.554Z,4.93
2023-03-05T19:55:05.256Z,4.80
2023-03-05T19:57:35.144Z,4.65
2023-03-05T20:00:05.777Z,4.65
2023-03-05T20:02:36.782Z,4.40
2023-03-05T20:05:07.292Z,4.72
2023-03-05T20:07:36.769Z,5.15
2023-03-05T20:10:07.185Z,4.40
2023-03-05T20:12:36.829Z,5.15
2023-03-05T20:15:07.299Z,5.07
2023-03-05T20:17:38.638Z,4.70
2023-03-05T20:20:09.508Z,4.40
2023-03-05T20:22:39.532Z,5.20
2023-03-05T20:25:09.481Z,5.18
2023-03-05T20:27:39.033Z,4.28
2023-03-05T20:30:10.849Z,5.20
2023-03-05T20:32:42.435Z,4.68
2023-03-05T20:35:15.543Z,4.75
2023-03-05T20:38:00.448Z,4.57
2023-03-05T20:40:29.730Z,5.32
2023-03-05T20:42:58.899Z,5.15
2023-03-05T20:45:28.172Z,4.53
2023-03-05T20:47:58.750Z,4.72
2023-03-05T20:50:29.133Z,5.13
2023-03-05T20:52:58.952Z,5.45
2023-03-05T20:55:28.885Z,5.35
2023-03-05T20:57:58.432Z,5.70
2023-03-05T21:00:27.957Z,5.75
2023-03-05T21:02:58.914Z,6.25
2023-03-05T21:05:30.348Z,5.88
2023-03-05T21:08:00.469Z,5.55
2023-03-05T21:10:29.720Z,5.80
2023-03-05T21:13:00.758Z,5.95
2023-03-05T21:15:31.371Z,5.82
2023-03-05T21:18:02.232Z,6.25
2023-03-05T21:20:32.036Z,5.70
2023-03-05T21:23:01.309Z,5.78
2023-03-05T21:25:31.707Z,6.13
2023-03-05T21:28:03.409Z,6.13
2023-03-05T21:30:35.250Z,5.75
2023-03-05T21:33:09.100Z,6.47
2023-03-05T21:35:39.236Z,6.20
2023-03-05T21:38:09.954Z,6.40
2023-03-05T21:40:43.752Z,5.95
2023-03-05T21:43:13.927Z,6.88
2023-03-05T21:45:44.028Z,6.20
2023-03-05T21:48:15.147Z,6.18
2023-03-05T21:50:46.090Z,6.45
2023-03-05T21:53:16.873Z,6.45
2023-03-05T21:56:03.252Z,6.40
2023-03-05T21:58:33.719Z,6.70
2023-03-05T22:01:03.371Z,7.25
2023-03-05T22:03:34.952Z,6.43
2023-03-05T22:06:04.446Z,7.07
2023-03-05T22:08:33.620Z,7.13
2023-03-05T22:11:03.003Z,7.20
2023-03-05T22:13:32.183Z,6.53
2023-03-05T22:16:01.484Z,6.72
2023-03-05T22:18:32.264Z,6.63
2023-03-05T22:21:03.575Z,7.07
2023-03-05T22:23:35.396Z,6.50
2023-03-05T22:26:06.405Z,7.07
2023-03-05T22:28:39.074Z,6.70
2023-03-05T22:31:08.463Z,7.32
2023-03-05T22:33:37.691Z,6.57
2023-03-05T22:36:13.395Z,7.03
2023-03-05T22:38:42.862Z,7.07
2023-03-05T22:41:14.195Z,6.85
2023-03-05T22:43:43.846Z,7.35
2023-03-05T22:46:15.348Z,7.00
2023-03-05T22:48:44.842Z,7.20
2023-03-05T22:51:16.148Z,7.03
2023-03-05T22:53:46.214Z,6.85
2023-03-05T22:56:16.988Z,7.60
2023-03-05T22:58:46.898Z,7.45
2023-03-05T23:01:17.998Z,7.85
2023-03-05T23:03:55.665Z,7.53
2023-03-05T23:06:26.396Z,7.45
2023-03-05T23:08:55.882Z,7.45
2023-03-05T23:11:25.075Z,6.85
2023-03-05T23:13:54.213Z,8.10
2023-03-05T23:16:23.462Z,7.63
2023-03-05T23:18:52.620Z,7.30
2023-03-05T23:21:21.990Z,7.65
2023-03-05T23:23:53.279Z,7.82
2023-03-05T23:26:22.827Z,7.50
2023-03-05T23:28:52.053Z,7.15
2023-03-05T23:31:21.316Z,7.88
2023-03-05T23:33:50.562Z,7.32
2023-03-05T23:36:20.424Z,7.30
2023-03-05T23:38:51.803Z,7.60
2023-03-05T23:41:22.379Z,7.60
2023-03-05T23:43:51.659Z,7.60
2023-03-05T23:46:20.949Z,7.22
2023-03-05T23:48:50.274Z,7.55
2023-03-05T23:51:19.514Z,7.60
2023-03-05T23:53:48.969Z,7.65
2023-03-05T23:56:18.412Z,7.10
2023-03-05T23:58:48.982Z,7.55
